Time;durP1;ratioP1;P1;durP2;ratioP2;P2;SDS_P1;SDS_P2;PMS_P1;PMS_P2;Temp;Humidity;BMP_temperature;BMP_pressure;BME280_temperature;BME280_humidity;BME280_pressure;Samples;Min_cycle;Max_cycle;Signal;HPM_P1;HPM_P2
2024/01/23 00:02:16;;;;;;;32.75;3.80;;;;;;;7.51;94.67;101365.03;5004849;28;20052;-76
2024/01/23 00:04:42;;;;;;;21.85;3.58;;;;;;;7.41;97.25;101377.88;4999225;28;20184;-77
2024/01/23 00:07:07;;;;;;;33.75;3.55;;;;;;;7.54;98.13;101394.97;5019386;28;20048;-77
2024/01/23 00:09:33;;;;;;;28.08;4.22;;;;;;;7.44;97.81;101391.47;5036611;28;20029;-76
2024/01/23 00:12:00;;;;;;;27.02;3.15;;;;;;;7.43;97.69;101388.06;5036124;28;20044;-78
2024/01/23 00:14:25;;;;;;;21.55;3.35;;;;;;;7.38;96.46;101396.19;5032838;28;20063;-77
2024/01/23 00:16:51;;;;;;;34.20;3.58;;;;;;;7.35;96.77;101396.41;5032808;28;20476;-77
2024/01/23 00:19:16;;;;;;;30.73;3.60;;;;;;;7.34;96.84;101414.59;5019700;28;20041;-77
2024/01/23 00:21:42;;;;;;;31.15;4.35;;;;;;;7.36;96.89;101403.19;5033331;28;20423;-77
2024/01/23 00:24:07;;;;;;;24.35;3.22;;;;;;;7.38;95.26;101415.97;5031416;28;20048;-77
2024/01/23 00:26:33;;;;;;;31.25;4.90;;;;;;;7.43;95.23;101418.22;4998023;28;20036;-77
2024/01/23 00:28:58;;;;;;;27.33;3.60;;;;;;;7.44;94.61;101423.28;5015893;28;20403;-77
2024/01/23 00:31:25;;;;;;;26.42;3.42;;;;;;;7.44;93.96;101433.59;4998208;28;20099;-77
2024/01/23 00:33:52;;;;;;;24.77;2.95;;;;;;;7.43;93.38;101434.53;5012477;28;20040;-77
2024/01/23 00:36:17;;;;;;;35.38;3.63;;;;;;;7.41;93.27;101446.72;4999310;28;20057;-77
2024/01/23 00:38:43;;;;;;;31.08;4.22;;;;;;;7.42;92.41;101445.75;5031164;28;20040;-78
2024/01/23 00:41:08;;;;;;;29.00;3.63;;;;;;;7.43;92.54;101450.00;5017230;28;20061;-77
2024/01/23 00:43:34;;;;;;;29.63;4.85;;;;;;;7.42;92.60;101453.50;5000220;28;20491;-77
2024/01/23 00:45:59;;;;;;;27.98;3.95;;;;;;;7.36;92.55;101459.97;5002292;28;20044;-76
2024/01/23 00:48:25;;;;;;;37.25;2.85;;;;;;;7.41;93.01;101470.75;4997197;28;20026;-77
2024/01/23 00:50:50;;;;;;;26.60;3.00;;;;;;;7.43;92.64;101468.06;5012858;28;20097;-76
2024/01/23 00:53:16;;;;;;;29.45;2.88;;;;;;;7.37;93.22;101474.53;5015678;28;20492;-77
2024/01/23 00:55:41;;;;;;;31.52;5.70;;;;;;;7.39;92.81;101485.53;5016090;28;20030;-76
2024/01/23 00:58:06;;;;;;;36.55;4.30;;;;;;;7.38;92.33;101483.06;5024909;28;20470;-77
2024/01/23 01:00:32;;;;;;;22.45;4.22;;;;;;;7.37;92.61;101489.19;4999895;28;20038;-77
2024/01/23 01:02:57;;;;;;;33.67;3.47;;;;;;;7.37;91.93;101487.41;5021469;28;20021;-76
2024/01/23 01:05:23;;;;;;;20.92;3.90;;;;;;;7.35;91.56;101501.38;5001024;28;20036;-77
2024/01/23 01:07:48;;;;;;;29.23;2.97;;;;;;;7.31;92.26;101500.81;5040627;28;20069;-77
2024/01/23 01:10:14;;;;;;;23.75;3.00;;;;;;;7.32;91.70;101517.91;5022558;28;20045;-76
2024/01/23 01:12:39;;;;;;;28.33;3.38;;;;;;;7.34;89.06;101523.78;5005939;28;20296;-77
2024/01/23 01:15:05;;;;;;;19.67;3.00;;;;;;;7.36;88.57;101521.06;5001849;28;20068;-77
2024/01/23 01:17:32;;;;;;;26.48;2.92;;;;;;;7.37;88.21;101515.00;5018432;28;20116;-78
2024/01/23 01:19:58;;;;;;;18.40;3.17;;;;;;;7.44;87.57;101536.81;5028720;28;20487;-75
2024/01/23 01:22:23;;;;;;;21.92;2.55;;;;;;;7.42;87.95;101543.81;4999176;28;20033;-76
2024/01/23 01:24:49;;;;;;;21.67;2.97;;;;;;;7.38;88.81;101539.84;5036375;28;20077;-76
2024/01/23 01:27:14;;;;;;;24.90;3.38;;;;;;;7.41;88.67;101540.44;5030501;28;20053;-76
2024/01/23 01:29:41;;;;;;;26.45;3.65;;;;;;;7.36;89.35;101531.41;5028710;28;20044;-77
2024/01/23 01:32:06;;;;;;;23.33;3.33;;;;;;;7.39;89.21;101544.06;5027955;28;20140;-77
2024/01/23 01:34:32;;;;;;;23.42;2.65;;;;;;;7.40;89.61;101548.28;4995566;28;20128;-77
2024/01/23 01:36:57;;;;;;;28.55;4.05;;;;;;;7.39;89.27;101560.38;5036000;28;20033;-76
2024/01/23 01:39:24;;;;;;;18.38;3.05;;;;;;;7.35;89.50;101573.63;5010948;28;20046;-77
2024/01/23 01:41:53;;;;;;;21.10;3.10;;;;;;;7.28;89.83;101575.84;5024510;28;20029;-76
2024/01/23 01:44:19;;;;;;;20.45;3.28;;;;;;;7.28;88.97;101575.03;4997820;28;20385;-77
2024/01/23 01:46:45;;;;;;;28.55;4.78;;;;;;;7.34;89.31;101582.28;4997806;28;20037;-76
2024/01/23 01:49:11;;;;;;;29.90;3.78;;;;;;;7.34;88.91;101583.13;5016741;28;20024;-77
2024/01/23 01:51:37;;;;;;;23.77;4.15;;;;;;;7.26;89.25;101585.47;5031572;28;20056;-77
2024/01/23 01:54:04;;;;;;;25.92;3.65;;;;;;;7.21;89.35;101584.97;5017578;28;20472;-77
2024/01/23 01:56:31;;;;;;;25.13;3.47;;;;;;;7.27;89.00;101612.91;5035123;28;20130;-77
2024/01/23 01:58:59;;;;;;;23.50;3.17;;;;;;;7.22;88.74;101602.91;5016162;28;20399;-77
2024/01/23 02:01:26;;;;;;;22.38;3.67;;;;;;;7.17;89.01;101589.53;4999953;28;20138;-76
2024/01/23 02:03:52;;;;;;;26.23;3.75;;;;;;;7.20;88.65;101588.50;5032234;28;21143;-77
2024/01/23 02:06:17;;;;;;;28.40;3.80;;;;;;;7.18;88.20;101596.34;5016234;28;20034;-76
2024/01/23 02:08:43;;;;;;;21.15;3.03;;;;;;;7.16;88.51;101584.50;4997795;28;20026;-77
2024/01/23 02:11:12;;;;;;;22.17;2.55;;;;;;;7.20;87.18;101602.22;5027859;28;20041;-76
2024/01/23 02:13:38;;;;;;;21.67;3.25;;;;;;;7.12;86.75;101609.72;5027866;28;20064;-77
2024/01/23 02:16:03;;;;;;;26.58;3.72;;;;;;;7.11;86.59;101610.63;5003595;28;20922;-77
2024/01/23 02:18:29;;;;;;;23.13;4.28;;;;;;;7.14;86.00;101631.06;4998866;28;20041;-77
2024/01/23 02:20:54;;;;;;;19.98;3.85;;;;;;;7.00;87.38;101642.34;5018417;28;20037;-77
2024/01/23 02:23:20;;;;;;;28.70;3.55;;;;;;;7.08;87.05;101643.56;5030788;28;20029;-77
2024/01/23 02:25:45;;;;;;;30.10;3.20;;;;;;;6.96;87.69;101643.53;5033482;28;20498;-76
2024/01/23 02:28:12;;;;;;;13.25;2.35;;;;;;;6.99;87.70;101642.50;5029187;28;20037;-77
2024/01/23 02:30:37;;;;;;;24.23;2.30;;;;;;;7.04;87.44;101639.56;5015158;28;20121;-78
2024/01/23 02:33:04;;;;;;;25.15;2.63;;;;;;;7.03;87.57;101651.66;5011242;28;20104;-77
2024/01/23 02:35:31;;;;;;;25.45;3.05;;;;;;;7.01;87.98;101653.53;5009416;28;20029;-77
2024/01/23 02:37:56;;;;;;;23.50;3.78;;;;;;;6.96;87.90;101660.75;5026786;28;20144;-76
2024/01/23 02:40:22;;;;;;;18.35;2.25;;;;;;;6.90;88.14;101671.53;5026666;28;20589;-77
2024/01/23 02:42:48;;;;;;;23.90;2.20;;;;;;;6.79;88.47;101669.72;5010040;28;20061;-77
2024/01/23 02:45:13;;;;;;;25.73;3.15;;;;;;;6.80;88.46;101681.69;4994748;28;20116;-78
2024/01/23 02:47:39;;;;;;;19.55;3.67;;;;;;;6.77;88.25;101680.13;5009103;28;20057;-76
2024/01/23 02:50:05;;;;;;;14.93;2.60;;;;;;;6.80;88.43;101674.75;5013764;28;20091;-77
2024/01/23 02:52:31;;;;;;;26.45;3.05;;;;;;;6.78;88.02;101665.47;4989028;28;20083;-76
2024/01/23 02:54:58;;;;;;;19.02;2.60;;;;;;;6.68;88.65;101675.63;5011816;28;20034;-76
2024/01/23 02:57:25;;;;;;;17.02;2.33;;;;;;;6.69;88.98;101673.91;5001736;28;20033;-77
2024/01/23 02:59:51;;;;;;;27.17;2.95;;;;;;;6.60;89.07;101690.81;5021383;28;20699;-77
2024/01/23 03:02:17;;;;;;;23.13;3.92;;;;;;;6.62;89.38;101696.69;5004796;28;20104;-76
2024/01/23 03:04:42;;;;;;;18.88;2.70;;;;;;;6.64;89.06;101699.97;5004439;28;20041;-78
2024/01/23 03:07:07;;;;;;;25.02;3.13;;;;;;;6.61;88.84;101701.03;5028059;28;20041;-76
2024/01/23 03:09:33;;;;;;;20.30;2.25;;;;;;;6.56;89.19;101710.81;5007569;28;20053;-77
2024/01/23 03:11:59;;;;;;;23.23;2.58;;;;;;;6.47;90.07;101706.31;5016600;28;20044;-77
2024/01/23 03:14:24;;;;;;;19.40;2.92;;;;;;;6.40;91.04;101715.38;5023974;28;20111;-78
2024/01/23 03:16:49;;;;;;;16.52;2.33;;;;;;;6.47;90.36;101723.53;5025609;28;20029;-77
2024/01/23 03:19:15;;;;;;;16.80;2.25;;;;;;;6.44;90.37;101737.44;5027045;28;20045;-76
2024/01/23 03:21:41;;;;;;;14.13;2.28;;;;;;;6.36;90.97;101734.56;5024935;28;20036;-76
2024/01/23 03:24:06;;;;;;;24.92;3.67;;;;;;;6.40;90.73;101729.13;4992208;28;20021;-78
2024/01/23 03:26:32;;;;;;;23.08;3.63;;;;;;;6.39;90.90;101735.19;5008139;28;20052;-77
2024/01/23 03:28:57;;;;;;;25.00;3.00;;;;;;;6.30;91.22;101753.84;4998962;28;20021;-78
2024/01/23 03:31:23;;;;;;;20.30;2.97;;;;;;;6.29;91.14;101748.78;5009870;28;20408;-77
2024/01/23 03:33:48;;;;;;;28.08;2.78;;;;;;;6.19;91.73;101743.44;5010202;28;20033;-78
2024/01/23 03:36:13;;;;;;;23.63;3.00;;;;;;;6.18;92.01;101754.69;4991505;28;20410;-76
2024/01/23 03:38:39;;;;;;;22.58;2.75;;;;;;;6.21;92.10;101752.72;5028102;28;20186;-78
2024/01/23 03:41:04;;;;;;;16.88;2.55;;;;;;;6.12;92.57;101762.81;5007939;28;20041;-77
2024/01/23 03:43:30;;;;;;;23.63;2.60;;;;;;;6.01;92.81;101777.25;5011874;28;20438;-78
2024/01/23 03:45:55;;;;;;;32.58;3.45;;;;;;;6.09;93.52;101769.00;5013369;28;20037;-77
2024/01/23 03:48:21;;;;;;;17.10;2.15;;;;;;;6.04;93.24;101778.78;5028465;28;20034;-77
2024/01/23 03:50:46;;;;;;;19.65;3.40;;;;;;;6.03;93.43;101777.97;5029877;28;20041;-77
2024/01/23 03:53:12;;;;;;;20.67;3.00;;;;;;;5.93;94.00;101782.03;5031632;28;20043;-77
2024/01/23 03:55:37;;;;;;;23.13;3.03;;;;;;;5.92;94.15;101785.56;4991595;28;20033;-78
2024/01/23 03:58:04;;;;;;;19.40;2.42;;;;;;;5.83;94.84;101784.41;5008981;28;20076;-77
2024/01/23 04:00:29;;;;;;;23.70;2.78;;;;;;;5.85;94.51;101774.81;4990846;28;21606;-77
2024/01/23 04:02:55;;;;;;;20.95;2.95;;;;;;;5.76;95.39;101792.63;4993258;28;20087;-77
2024/01/23 04:05:20;;;;;;;28.40;3.55;;;;;;;5.73;95.46;101806.53;5008581;28;20049;-77
2024/01/23 04:07:47;;;;;;;24.23;2.85;;;;;;;5.87;95.01;101804.81;5013862;28;20076;-77
2024/01/23 04:10:13;;;;;;;19.55;2.55;;;;;;;5.81;95.09;101809.41;5005733;28;20026;-77
2024/01/23 04:12:40;;;;;;;22.75;3.20;;;;;;;5.75;95.49;101811.59;5026622;28;20060;-77
2024/01/23 04:15:06;;;;;;;25.60;3.55;;;;;;;5.76;95.90;101806.31;5028561;28;20163;-77
2024/01/23 04:17:31;;;;;;;24.10;4.57;;;;;;;5.77;96.17;101820.03;5029163;28;20144;-77
2024/01/23 04:19:57;;;;;;;32.72;3.22;;;;;;;5.69;96.33;101820.53;5010170;28;20034;-76
2024/01/23 04:22:22;;;;;;;24.00;3.47;;;;;;;5.68;96.44;101823.19;5012224;28;20037;-77
2024/01/23 04:24:48;;;;;;;20.60;3.42;;;;;;;5.71;96.25;101828.13;5015188;28;20048;-77
2024/01/23 04:27:15;;;;;;;21.15;3.58;;;;;;;5.72;96.40;101832.34;5019033;28;20033;-77
2024/01/23 04:29:41;;;;;;;27.90;2.72;;;;;;;5.71;96.73;101828.13;5011270;28;20037;-77
2024/01/23 04:32:06;;;;;;;23.60;3.00;;;;;;;5.61;97.10;101831.31;5018942;28;20060;-78
2024/01/23 04:34:32;;;;;;;18.10;2.45;;;;;;;5.57;97.21;101839.31;5013702;28;20388;-76
2024/01/23 04:36:57;;;;;;;26.35;3.47;;;;;;;5.48;98.12;101848.44;5031847;28;20052;-77
2024/01/23 04:39:23;;;;;;;27.98;4.53;;;;;;;5.38;98.24;101860.22;5015588;28;20037;-76
2024/01/23 04:41:48;;;;;;;19.83;2.67;;;;;;;5.50;98.30;101867.19;5020493;28;20495;-77
2024/01/23 04:44:13;;;;;;;32.85;3.85;;;;;;;5.64;98.05;101874.03;5011552;28;20076;-78
2024/01/23 04:46:39;;;;;;;34.10;3.28;;;;;;;5.57;97.74;101877.91;4997784;28;20048;-77
2024/01/23 04:49:04;;;;;;;24.10;3.25;;;;;;;5.40;98.29;101873.81;5011923;28;20431;-78
2024/01/23 04:51:30;;;;;;;29.00;3.00;;;;;;;5.52;98.46;101880.78;5032833;28;20029;-77
2024/01/23 04:53:55;;;;;;;33.17;3.30;;;;;;;5.54;98.04;101894.38;5031930;28;20022;-78
2024/01/23 04:56:21;;;;;;;30.40;3.15;;;;;;;5.53;98.20;101899.63;5005055;28;20130;-78
2024/01/23 04:58:48;;;;;;;27.77;2.95;;;;;;;5.37;99.11;101917.72;5006710;28;20022;-78
2024/01/23 05:01:14;;;;;;;29.10;3.83;;;;;;;5.37;98.76;101918.56;5004227;28;20429;-79
2024/01/23 05:03:39;;;;;;;20.75;3.13;;;;;;;5.46;98.90;101919.72;5005529;28;20082;-79
2024/01/23 05:06:05;;;;;;;25.60;3.10;;;;;;;5.44;98.43;101934.44;5003014;28;20033;-78
2024/01/23 05:08:31;;;;;;;26.48;3.17;;;;;;;5.38;98.84;101935.66;5022731;28;20036;-77
2024/01/23 05:10:56;;;;;;;31.83;3.40;;;;;;;5.35;98.80;101938.44;4998256;28;20034;-77
2024/01/23 05:13:22;;;;;;;27.35;3.63;;;;;;;5.36;98.88;101932.34;5035142;28;20033;-78
2024/01/23 05:15:47;;;;;;;26.95;3.00;;;;;;;5.36;98.75;101934.09;5038855;28;20064;-78
2024/01/23 05:18:13;;;;;;;24.90;2.75;;;;;;;5.28;98.53;101944.03;5021033;28;20041;-79
2024/01/23 05:20:39;;;;;;;31.58;3.67;;;;;;;5.34;98.90;101948.81;5019510;28;20110;-78
2024/01/23 05:23:05;;;;;;;28.88;4.20;;;;;;;5.24;99.29;101954.50;5040432;28;20041;-77
2024/01/23 05:25:31;;;;;;;26.45;4.03;;;;;;;5.31;98.63;101954.94;5023442;28;20051;-77
2024/01/23 05:27:56;;;;;;;20.48;3.45;;;;;;;5.28;98.52;101956.91;5003852;28;20033;-78
2024/01/23 05:30:30;;;;;;;22.85;2.78;;;;;;;5.25;98.48;101970.75;5037803;28;20393;-77
2024/01/23 05:32:55;;;;;;;27.60;2.95;;;;;;;5.25;98.48;101984.47;5035883;28;20045;-78
2024/01/23 05:35:21;;;;;;;30.35;3.80;;;;;;;5.15;98.80;101988.50;5005423;28;20033;-76
2024/01/23 05:37:47;;;;;;;35.53;3.28;;;;;;;5.15;98.70;101996.19;5025381;28;20029;-78
2024/01/23 05:40:13;;;;;;;20.85;3.00;;;;;;;5.10;99.12;101997.38;5000333;28;20057;-78
2024/01/23 05:42:38;;;;;;;23.90;3.60;;;;;;;5.03;99.10;101996.94;5041136;28;20037;-77
2024/01/23 05:45:04;;;;;;;17.15;3.17;;;;;;;5.02;100.00;102003.00;5023950;28;20056;-79
2024/01/23 05:47:31;;;;;;;19.67;3.72;;;;;;;5.04;99.36;102012.25;5023889;28;20041;-76
2024/01/23 05:49:56;;;;;;;21.33;2.38;;;;;;;5.03;99.17;102018.34;5006707;28;20025;-79
2024/01/23 05:52:22;;;;;;;15.93;2.78;;;;;;;4.96;98.94;102029.06;5024327;28;20064;-78
2024/01/23 05:54:49;;;;;;;19.80;2.60;;;;;;;5.14;98.98;102040.00;5030719;28;20034;-77
2024/01/23 05:57:15;;;;;;;24.92;3.60;;;;;;;5.02;98.70;102038.97;5012864;28;20523;-78
2024/01/23 05:59:41;;;;;;;30.90;2.95;;;;;;;5.05;98.72;102049.91;4996935;28;20048;-77
2024/01/23 06:02:07;;;;;;;17.40;2.67;;;;;;;4.87;99.88;102053.53;5022773;28;20033;-77
2024/01/23 06:04:32;;;;;;;29.60;3.67;;;;;;;4.88;100.00;102068.06;5033063;28;20140;-77
2024/01/23 06:06:58;;;;;;;22.77;2.88;;;;;;;4.84;99.96;102077.69;5019422;28;21413;-77
2024/01/23 06:09:24;;;;;;;27.48;4.13;;;;;;;4.86;99.86;102081.00;5018527;28;20036;-76
2024/01/23 06:11:49;;;;;;;26.67;4.05;;;;;;;4.72;100.00;102067.28;5034366;28;20029;-78
2024/01/23 06:14:15;;;;;;;23.73;4.85;;;;;;;4.74;100.00;102079.13;4999377;28;20230;-78
2024/01/23 06:16:40;;;;;;;16.95;2.58;;;;;;;4.78;100.00;102082.34;5021791;28;20495;-77
2024/01/23 06:19:09;;;;;;;22.67;2.78;;;;;;;4.70;100.00;102087.09;5018773;28;20036;-77
2024/01/23 06:21:35;;;;;;;26.23;3.97;;;;;;;4.71;100.00;102078.47;5005993;28;20098;-77
2024/01/23 06:24:01;;;;;;;19.92;2.55;;;;;;;4.82;100.00;102084.66;5019044;28;20044;-78
2024/01/23 06:26:26;;;;;;;30.27;3.38;;;;;;;4.80;100.00;102078.78;5014686;28;20060;-76
2024/01/23 06:28:52;;;;;;;24.88;2.90;;;;;;;4.78;100.00;102082.34;4998485;28;20032;-76
2024/01/23 06:31:19;;;;;;;17.30;2.75;;;;;;;4.73;100.00;102094.63;5029014;28;20033;-77
2024/01/23 06:33:45;;;;;;;34.60;4.55;;;;;;;4.73;100.00;102092.03;5015390;28;20148;-77
2024/01/23 06:36:10;;;;;;;21.05;4.15;;;;;;;4.78;100.00;102102.91;5013166;28;20087;-78
2024/01/23 06:38:36;;;;;;;25.10;4.07;;;;;;;4.64;100.00;102113.97;4995828;28;20033;-77
2024/01/23 06:41:01;;;;;;;19.17;3.97;;;;;;;4.56;100.00;102113.53;5030585;28;20026;-78
2024/01/23 06:43:27;;;;;;;22.15;2.38;;;;;;;4.69;100.00;102104.25;5030164;28;20415;-77
2024/01/23 06:45:52;;;;;;;25.67;2.67;;;;;;;4.64;100.00;102109.66;5012719;28;20052;-77
2024/01/23 06:48:18;;;;;;;29.65;5.28;;;;;;;4.63;100.00;102114.88;5011706;28;20375;-76
2024/01/23 06:50:44;;;;;;;28.88;3.13;;;;;;;4.56;100.00;102119.53;5008018;28;20049;-78
2024/01/23 06:53:10;;;;;;;28.60;3.15;;;;;;;4.52;100.00;102127.47;4999575;28;20048;-78
2024/01/23 06:55:35;;;;;;;38.22;3.88;;;;;;;4.53;100.00;102131.72;5033470;28;20418;-78
2024/01/23 06:58:01;;;;;;;22.40;4.75;;;;;;;4.43;100.00;102133.97;5029544;28;20518;-77
2024/01/23 07:00:26;;;;;;;17.90;2.30;;;;;;;4.47;100.00;102138.84;5013594;28;20040;-78
2024/01/23 07:02:52;;;;;;;38.97;3.05;;;;;;;4.52;100.00;102135.19;4993134;28;20558;-78
2024/01/23 07:05:17;;;;;;;19.67;2.85;;;;;;;4.56;100.00;102145.22;5011992;28;20092;-78
2024/01/23 07:07:43;;;;;;;25.75;3.00;;;;;;;4.52;100.00;102148.03;5030391;28;20040;-78
2024/01/23 07:10:09;;;;;;;24.23;3.88;;;;;;;4.57;100.00;102161.44;5028687;28;20052;-77
2024/01/23 07:12:35;;;;;;;26.63;3.50;;;;;;;4.48;100.00;102161.06;5015212;28;20033;-77
2024/01/23 07:15:00;;;;;;;28.65;3.97;;;;;;;4.51;100.00;102164.38;4999003;28;20045;-75
2024/01/23 07:17:26;;;;;;;27.73;2.88;;;;;;;4.45;100.00;102165.53;5031784;28;20033;-77
2024/01/23 07:19:51;;;;;;;21.13;2.72;;;;;;;4.38;100.00;102167.59;4994314;28;20408;-77
2024/01/23 07:22:17;;;;;;;28.55;3.05;;;;;;;4.35;100.00;102165.19;5032511;28;20031;-78
2024/01/23 07:24:43;;;;;;;28.40;3.85;;;;;;;4.38;100.00;102179.59;5013425;28;20518;-79
2024/01/23 07:27:08;;;;;;;30.63;3.70;;;;;;;4.42;100.00;102171.63;5022065;28;20041;-78
2024/01/23 07:29:35;;;;;;;28.70;3.00;;;;;;;4.40;100.00;102181.16;5030164;28;20026;-77
2024/01/23 07:32:00;;;;;;;22.92;3.13;;;;;;;4.25;100.00;102181.97;4996565;28;20045;-77
2024/01/23 07:34:26;;;;;;;27.25;3.13;;;;;;;4.32;100.00;102178.19;5013467;28;20054;-77
2024/01/23 07:36:51;;;;;;;22.13;4.65;;;;;;;4.45;100.00;102179.19;4997018;28;20392;-78
2024/01/23 07:39:17;;;;;;;18.10;2.88;;;;;;;4.29;100.00;102175.78;5014037;28;20041;-78
2024/01/23 07:41:43;;;;;;;21.80;4.00;;;;;;;4.34;100.00;102178.13;5034882;28;20041;-77
2024/01/23 07:44:08;;;;;;;36.97;7.40;;;;;;;4.31;100.00;102173.94;5013404;28;20041;-78
2024/01/23 07:46:34;;;;;;;25.45;4.50;;;;;;;4.41;100.00;102180.28;5013876;28;20132;-77
2024/01/23 07:48:59;;;;;;;27.60;4.03;;;;;;;4.40;100.00;102188.06;4998672;28;20033;-78
2024/01/23 07:51:25;;;;;;;22.48;3.25;;;;;;;4.32;100.00;102201.31;5014811;28;20030;-78
2024/01/23 07:53:50;;;;;;;24.10;3.15;;;;;;;4.35;100.00;102208.84;5012879;28;20032;-78
2024/01/23 07:56:16;;;;;;;33.75;4.25;;;;;;;4.37;100.00;102211.31;5014858;28;20057;-78
2024/01/23 07:58:41;;;;;;;24.45;4.25;;;;;;;4.34;100.00;102220.03;4993586;28;20468;-78
2024/01/23 08:01:07;;;;;;;28.17;3.15;;;;;;;4.39;100.00;102218.06;5016130;28;20049;-78
2024/01/23 08:03:32;;;;;;;26.77;3.15;;;;;;;4.29;100.00;102227.13;5033249;28;20040;-77
2024/01/23 08:05:59;;;;;;;25.00;4.63;;;;;;;4.42;100.00;102227.31;5014725;28;20581;-79
2024/01/23 08:08:24;;;;;;;26.38;3.95;;;;;;;4.38;100.00;102234.34;5016733;28;20383;-78
2024/01/23 08:10:51;;;;;;;23.13;2.58;;;;;;;4.39;100.00;102230.91;5027814;28;20033;-78
2024/01/23 08:13:20;;;;;;;30.13;5.00;;;;;;;4.45;100.00;102242.59;5013267;28;20056;-76
2024/01/23 08:15:45;;;;;;;22.90;3.53;;;;;;;4.53;100.00;102235.28;4995307;28;20443;-78
2024/01/23 08:18:13;;;;;;;32.17;3.88;;;;;;;4.51;100.00;102244.81;5007455;28;20045;-76
2024/01/23 08:20:38;;;;;;;29.67;3.42;;;;;;;4.60;100.00;102261.50;5022391;28;20163;-77
2024/01/23 08:23:05;;;;;;;24.35;3.10;;;;;;;4.59;100.00;102257.25;5013062;28;20037;-77
2024/01/23 08:25:30;;;;;;;18.08;3.38;;;;;;;4.56;100.00;102258.25;5016872;28;20044;-78
2024/01/23 08:27:56;;;;;;;30.27;3.38;;;;;;;4.52;100.00;102261.91;5014702;28;20041;-77
2024/01/23 08:30:21;;;;;;;25.33;2.97;;;;;;;4.45;100.00;102274.22;5016505;28;20071;-77
2024/01/23 08:32:48;;;;;;;30.92;4.05;;;;;;;4.57;100.00;102279.63;5009605;28;20041;-77
2024/01/23 08:35:15;;;;;;;28.63;3.42;;;;;;;4.64;100.00;102276.66;5017609;28;20037;-77
2024/01/23 08:37:41;;;;;;;21.63;3.20;;;;;;;4.72;100.00;102289.09;5001426;28;20036;-76
2024/01/23 08:40:07;;;;;;;29.20;3.15;;;;;;;4.65;100.00;102290.34;4996270;28;20041;-78
2024/01/23 08:42:32;;;;;;;29.10;3.83;;;;;;;4.74;100.00;102297.56;5001522;28;20025;-78
2024/01/23 08:44:58;;;;;;;28.75;3.20;;;;;;;4.64;100.00;102304.94;5014572;28;20088;-78
2024/01/23 08:47:23;;;;;;;34.28;5.75;;;;;;;4.74;100.00;102301.88;5038081;28;20452;-78
2024/01/23 08:49:52;;;;;;;23.48;3.65;;;;;;;4.78;100.00;102301.63;5020159;28;20075;-78
2024/01/23 08:52:17;;;;;;;31.52;3.80;;;;;;;4.85;100.00;102308.09;5030948;28;20116;-77
2024/01/23 08:54:43;;;;;;;34.10;4.20;;;;;;;4.83;100.00;102309.91;5014429;28;20049;-78
2024/01/23 08:57:09;;;;;;;26.08;3.10;;;;;;;4.88;100.00;102305.38;4996388;28;20040;-77
2024/01/23 08:59:38;;;;;;;29.23;3.28;;;;;;;4.96;100.00;102306.72;5034100;28;20049;-76
2024/01/23 09:02:04;;;;;;;23.15;4.65;;;;;;;5.01;100.00;102314.97;5037630;28;20037;-77
2024/01/23 09:04:29;;;;;;;32.25;3.00;;;;;;;5.02;100.00;102316.66;5015407;28;20083;-78
2024/01/23 09:06:55;;;;;;;15.20;3.65;;;;;;;4.98;100.00;102317.75;5034554;28;20033;-77
2024/01/23 09:09:20;;;;;;;27.50;3.92;;;;;;;5.20;100.00;102314.84;5035778;28;20041;-77
2024/01/23 09:11:46;;;;;;;34.10;3.33;;;;;;;5.19;100.00;102314.00;4996750;28;20527;-77
2024/01/23 09:14:12;;;;;;;26.40;3.28;;;;;;;5.29;100.00;102316.88;5033227;28;20041;-77
2024/01/23 09:16:37;;;;;;;31.48;3.90;;;;;;;5.30;100.00;102307.44;5033328;28;20036;-77
2024/01/23 09:19:02;;;;;;;19.45;3.45;;;;;;;5.39;100.00;102323.19;5001638;28;20044;-77
2024/01/23 09:21:28;;;;;;;32.55;3.10;;;;;;;5.45;100.00;102325.41;5014260;28;20037;-77
2024/01/23 09:23:54;;;;;;;21.45;3.25;;;;;;;5.35;100.00;102331.16;5000599;28;20415;-78
2024/01/23 09:26:19;;;;;;;27.60;3.88;;;;;;;5.36;100.00;102337.97;4998157;28;20033;-77
2024/01/23 09:28:45;;;;;;;23.13;3.30;;;;;;;5.37;100.00;102327.59;4996844;28;20379;-77
2024/01/23 09:31:10;;;;;;;27.08;3.10;;;;;;;5.51;100.00;102323.44;5031952;28;20043;-77
2024/01/23 09:33:36;;;;;;;40.85;4.10;;;;;;;5.47;100.00;102330.47;5011025;28;20064;-78
2024/01/23 09:36:01;;;;;;;32.92;3.80;;;;;;;5.51;100.00;102324.25;4995152;28;20030;-77
2024/01/23 09:38:27;;;;;;;35.55;5.55;;;;;;;5.56;100.00;102336.88;4995550;28;20029;-78
2024/01/23 09:40:52;;;;;;;31.70;4.40;;;;;;;5.59;100.00;102328.97;5000312;28;20369;-78
2024/01/23 09:43:21;;;;;;;14.07;2.60;;;;;;;5.60;100.00;102336.59;5015566;28;20033;-77
2024/01/23 09:45:49;;;;;;;29.10;3.95;;;;;;;5.62;100.00;102319.31;5025842;28;20141;-78
2024/01/23 09:48:15;;;;;;;24.73;3.20;;;;;;;5.64;100.00;102330.38;5013734;28;20041;-77
2024/01/23 09:50:42;;;;;;;28.02;4.18;;;;;;;5.75;100.00;102321.22;5029401;28;20037;-78
2024/01/23 09:53:10;;;;;;;26.33;3.72;;;;;;;5.71;99.86;102307.69;5035132;28;20061;-76
2024/01/23 09:55:36;;;;;;;29.33;4.40;;;;;;;5.74;99.70;102304.94;5011301;28;20037;-77
2024/01/23 09:58:03;;;;;;;28.80;4.68;;;;;;;5.74;100.00;102301.53;5032200;28;20053;-76
2024/01/23 10:00:29;;;;;;;26.40;3.10;;;;;;;5.77;100.00;102311.66;5014033;28;20041;-77
2024/01/23 10:02:55;;;;;;;32.85;4.90;;;;;;;5.88;99.45;102317.03;5013051;28;20034;-77
2024/01/23 10:05:22;;;;;;;23.70;3.35;;;;;;;5.90;99.36;102319.53;5026851;28;20068;-76
2024/01/23 10:07:47;;;;;;;44.20;5.25;;;;;;;5.98;99.12;102328.47;5027565;28;20025;-77
2024/01/23 10:10:14;;;;;;;33.42;4.78;;;;;;;5.93;99.27;102335.59;5015372;28;20045;-76
2024/01/23 10:12:45;;;;;;;30.65;4.03;;;;;;;6.09;99.05;102347.63;5029388;28;20056;-77
2024/01/23 10:15:16;;;;;;;33.80;4.00;;;;;;;6.07;98.09;102350.31;5029115;28;20050;-77
2024/01/23 10:17:43;;;;;;;33.70;4.85;;;;;;;6.07;98.00;102354.63;5030804;28;20088;-77
2024/01/23 10:20:09;;;;;;;32.03;3.95;;;;;;;6.12;98.26;102356.03;4994439;28;20470;-77
2024/01/23 10:22:35;;;;;;;29.33;3.55;;;;;;;6.24;97.09;102359.63;5030551;28;20064;-77
2024/01/23 10:25:10;;;;;;;29.02;3.50;;;;;;;6.18;96.99;102363.38;5027765;28;20065;-76
2024/01/23 10:27:36;;;;;;;46.08;5.00;;;;;;;6.21;97.23;102359.78;5014182;28;20029;-78
2024/01/23 10:30:02;;;;;;;36.63;5.70;;;;;;;6.12;97.44;102348.28;5028807;28;20034;-77
2024/01/23 10:32:31;;;;;;;30.38;3.30;;;;;;;6.20;97.71;102353.81;5000366;28;20025;-77
2024/01/23 10:34:56;;;;;;;33.65;5.25;;;;;;;6.21;97.11;102349.47;5033553;28;20113;-77
2024/01/23 10:37:22;;;;;;;33.40;4.45;;;;;;;6.28;97.12;102344.81;5036135;28;20132;-77
2024/01/23 10:39:49;;;;;;;25.02;3.58;;;;;;;6.32;96.46;102349.69;5030052;28;20127;-77
2024/01/23 10:42:16;;;;;;;41.97;9.75;;;;;;;6.31;96.49;102350.63;5034345;28;20044;-76
2024/01/23 10:44:44;;;;;;;37.13;7.00;;;;;;;6.26;96.78;102344.91;5016873;28;20033;-76
2024/01/23 10:47:09;;;;;;;38.10;4.38;;;;;;;6.36;96.26;102338.28;5031697;28;20045;-77
2024/01/23 10:49:35;;;;;;;35.45;5.05;;;;;;;6.34;95.90;102352.19;5013135;28;20045;-77
2024/01/23 10:52:04;;;;;;;36.70;5.50;;;;;;;6.40;95.98;102344.06;5007914;28;20042;-77
2024/01/23 10:54:31;;;;;;;27.90;3.90;;;;;;;6.38;96.00;102331.28;5010761;28;20061;-77
2024/01/23 10:56:59;;;;;;;34.78;4.88;;;;;;;6.58;95.01;102337.84;5030137;28;20091;-77
2024/01/23 10:59:30;;;;;;;42.22;5.60;;;;;;;6.61;94.42;102329.06;5027997;28;20400;-78
2024/01/23 11:02:04;;;;;;;26.73;3.92;;;;;;;6.56;94.69;102333.69;5011901;28;20087;-76
2024/01/23 11:04:30;;;;;;;30.15;3.88;;;;;;;6.58;93.94;102324.94;5028308;28;20416;-77
2024/01/23 11:07:10;;;;;;;35.08;5.78;;;;;;;6.67;93.32;102315.84;5001557;28;20033;-77
2024/01/23 11:09:44;;;;;;;30.45;5.00;;;;;;;6.67;93.35;102305.53;4993386;28;20411;-77
2024/01/23 11:12:14;;;;;;;34.20;3.35;;;;;;;6.74;93.83;102290.50;5009970;28;20040;-78
2024/01/23 11:14:50;;;;;;;30.85;3.20;;;;;;;6.88;92.46;102305.94;4997450;28;20038;-78
2024/01/23 11:17:17;;;;;;;23.45;4.07;;;;;;;6.96;90.92;102313.22;5014993;28;20067;-77